sensor_id;sensor_type;location;lat;lon;timestamp;temperature;humidity
25112;DHT22;13092;51.996;4.458;2023-10-08T00:01:03;19.90;99.90
25112;DHT22;13092;51.996;4.458;2023-10-08T00:03:33;19.90;99.90
25112;DHT22;13092;51.996;4.458;2023-10-08T00:06:03;19.90;99.90
25112;DHT22;13092;51.996;4.458;2023-10-08T00:08:39;19.90;99.90
25112;DHT22;13092;51.996;4.458;2023-10-08T00:11:09;19.90;99.90
25112;DHT22;13092;51.996;4.458;2023-10-08T00:13:38;19.90;99.90
25112;DHT22;13092;51.996;4.458;2023-10-08T00:16:09;19.80;99.90
25112;DHT22;13092;51.996;4.458;2023-10-08T00:18:38;19.80;99.90
25112;DHT22;13092;51.996;4.458;2023-10-08T00:21:08;19.80;99.90
25112;DHT22;13092;51.996;4.458;2023-10-08T00:23:46;19.90;99.90
25112;DHT22;13092;51.996;4.458;2023-10-08T00:26:21;19.80;99.90
25112;DHT22;13092;51.996;4.458;2023-10-08T00:28:55;19.80;99.90
25112;DHT22;13092;51.996;4.458;2023-10-08T00:31:26;19.90;99.90
25112;DHT22;13092;51.996;4.458;2023-10-08T00:33:58;19.80;99.90
25112;DHT22;13092;51.996;4.458;2023-10-08T00:36:26;19.80;99.90
25112;DHT22;13092;51.996;4.458;2023-10-08T00:38:54;19.80;99.90
25112;DHT22;13092;51.996;4.458;2023-10-08T00:41:28;19.70;99.90
25112;DHT22;13092;51.996;4.458;2023-10-08T00:43:59;19.80;99.90
25112;DHT22;13092;51.996;4.458;2023-10-08T00:46:28;19.80;99.90
25112;DHT22;13092;51.996;4.458;2023-10-08T00:49:01;19.80;99.90
25112;DHT22;13092;51.996;4.458;2023-10-08T00:51:46;19.80;99.90
25112;DHT22;13092;51.996;4.458;2023-10-08T00:54:26;19.80;99.90
25112;DHT22;13092;51.996;4.458;2023-10-08T00:56:56;19.80;99.90
25112;DHT22;13092;51.996;4.458;2023-10-08T00:59:24;19.80;99.90
25112;DHT22;13092;51.996;4.458;2023-10-08T01:01:53;19.80;99.90
25112;DHT22;13092;51.996;4.458;2023-10-08T01:04:26;19.70;99.90
25112;DHT22;13092;51.996;4.458;2023-10-08T01:06:57;19.70;99.90
25112;DHT22;13092;51.996;4.458;2023-10-08T01:09:28;19.70;99.90
25112;DHT22;13092;51.996;4.458;2023-10-08T01:12:11;19.60;99.90
25112;DHT22;13092;51.996;4.458;2023-10-08T01:14:46;19.70;99.90
25112;DHT22;13092;51.996;4.458;2023-10-08T01:17:16;19.60;99.90
25112;DHT22;13092;51.996;4.458;2023-10-08T01:19:46;19.60;99.90
25112;DHT22;13092;51.996;4.458;2023-10-08T01:22:23;19.60;99.90
25112;DHT22;13092;51.996;4.458;2023-10-08T01:24:55;19.60;99.90
25112;DHT22;13092;51.996;4.458;2023-10-08T01:27:24;19.60;99.90
25112;DHT22;13092;51.996;4.458;2023-10-08T01:30:01;19.60;99.90
25112;DHT22;13092;51.996;4.458;2023-10-08T01:32:45;19.60;99.90
25112;DHT22;13092;51.996;4.458;2023-10-08T01:35:13;19.50;99.90
25112;DHT22;13092;51.996;4.458;2023-10-08T01:37:52;19.60;99.90
25112;DHT22;13092;51.996;4.458;2023-10-08T01:40:23;19.60;99.90
25112;DHT22;13092;51.996;4.458;2023-10-08T01:42:51;19.60;99.90
25112;DHT22;13092;51.996;4.458;2023-10-08T01:45:19;19.60;99.90
25112;DHT22;13092;51.996;4.458;2023-10-08T01:47:51;19.60;99.90
25112;DHT22;13092;51.996;4.458;2023-10-08T01:50:22;19.60;99.90
25112;DHT22;13092;51.996;4.458;2023-10-08T01:52:53;19.60;99.90
25112;DHT22;13092;51.996;4.458;2023-10-08T01:55:21;19.60;99.90
25112;DHT22;13092;51.996;4.458;2023-10-08T01:57:50;19.60;99.90
25112;DHT22;13092;51.996;4.458;2023-10-08T02:00:19;19.60;99.90
25112;DHT22;13092;51.996;4.458;2023-10-08T02:02:50;19.60;99.90
25112;DHT22;13092;51.996;4.458;2023-10-08T02:05:18;19.60;99.90
25112;DHT22;13092;51.996;4.458;2023-10-08T02:07:48;19.60;99.90
25112;DHT22;13092;51.996;4.458;2023-10-08T02:10:22;19.60;99.90
25112;DHT22;13092;51.996;4.458;2023-10-08T02:12:52;19.60;99.90
25112;DHT22;13092;51.996;4.458;2023-10-08T02:15:20;19.70;99.90
25112;DHT22;13092;51.996;4.458;2023-10-08T02:17:48;19.70;99.90
25112;DHT22;13092;51.996;4.458;2023-10-08T02:20:17;19.70;99.90
25112;DHT22;13092;51.996;4.458;2023-10-08T02:22:45;19.70;99.90
25112;DHT22;13092;51.996;4.458;2023-10-08T02:25:15;19.70;99.90
25112;DHT22;13092;51.996;4.458;2023-10-08T02:27:46;19.70;99.90
25112;DHT22;13092;51.996;4.458;2023-10-08T02:30:15;19.70;99.90
25112;DHT22;13092;51.996;4.458;2023-10-08T02:32:44;19.70;99.90
25112;DHT22;13092;51.996;4.458;2023-10-08T02:35:13;19.80;99.90
25112;DHT22;13092;51.996;4.458;2023-10-08T02:37:41;19.80;99.90
25112;DHT22;13092;51.996;4.458;2023-10-08T02:40:12;19.80;99.90
25112;DHT22;13092;51.996;4.458;2023-10-08T02:42:48;19.80;99.90
25112;DHT22;13092;51.996;4.458;2023-10-08T02:45:16;19.80;99.90
25112;DHT22;13092;51.996;4.458;2023-10-08T02:47:45;19.80;99.90
25112;DHT22;13092;51.996;4.458;2023-10-08T02:50:13;19.80;99.90
25112;DHT22;13092;51.996;4.458;2023-10-08T02:52:44;19.80;99.90
25112;DHT22;13092;51.996;4.458;2023-10-08T02:55:11;19.80;99.90
25112;DHT22;13092;51.996;4.458;2023-10-08T02:57:53;19.80;99.90
25112;DHT22;13092;51.996;4.458;2023-10-08T03:00:23;19.80;99.90
25112;DHT22;13092;51.996;4.458;2023-10-08T03:02:57;19.80;99.90
25112;DHT22;13092;51.996;4.458;2023-10-08T03:05:28;19.70;99.90
25112;DHT22;13092;51.996;4.458;2023-10-08T03:08:03;19.80;99.90
25112;DHT22;13092;51.996;4.458;2023-10-08T03:10:37;19.70;99.90
25112;DHT22;13092;51.996;4.458;2023-10-08T03:13:08;19.80;99.90
25112;DHT22;13092;51.996;4.458;2023-10-08T03:15:40;19.70;99.90
25112;DHT22;13092;51.996;4.458;2023-10-08T03:18:29;19.70;99.90
25112;DHT22;13092;51.996;4.458;2023-10-08T03:21:03;19.70;99.90
25112;DHT22;13092;51.996;4.458;2023-10-08T03:23:32;19.70;99.90
25112;DHT22;13092;51.996;4.458;2023-10-08T03:26:04;19.70;99.90
25112;DHT22;13092;51.996;4.458;2023-10-08T03:28:39;19.60;99.90
25112;DHT22;13092;51.996;4.458;2023-10-08T03:31:08;19.70;99.90
25112;DHT22;13092;51.996;4.458;2023-10-08T03:33:43;19.60;99.90
25112;DHT22;13092;51.996;4.458;2023-10-08T03:36:16;19.50;99.90
25112;DHT22;13092;51.996;4.458;2023-10-08T03:38:49;19.50;99.90
25112;DHT22;13092;51.996;4.458;2023-10-08T03:41:22;19.50;99.90
25112;DHT22;13092;51.996;4.458;2023-10-08T03:43:58;19.40;99.90
25112;DHT22;13092;51.996;4.458;2023-10-08T03:46:33;19.40;99.90
25112;DHT22;13092;51.996;4.458;2023-10-08T03:49:06;19.40;99.90
25112;DHT22;13092;51.996;4.458;2023-10-08T03:51:41;19.40;99.90
25112;DHT22;13092;51.996;4.458;2023-10-08T03:54:10;19.40;99.90
25112;DHT22;13092;51.996;4.458;2023-10-08T03:56:45;19.40;99.90
25112;DHT22;13092;51.996;4.458;2023-10-08T03:59:17;19.50;99.90
25112;DHT22;13092;51.996;4.458;2023-10-08T04:01:58;19.30;99.90
25112;DHT22;13092;51.996;4.458;2023-10-08T04:04:37;19.30;99.90
25112;DHT22;13092;51.996;4.458;2023-10-08T04:07:19;19.30;99.90
25112;DHT22;13092;51.996;4.458;2023-10-08T04:09:56;19.20;99.90
25112;DHT22;13092;51.996;4.458;2023-10-08T04:12:53;19.20;99.90
25112;DHT22;13092;51.996;4.458;2023-10-08T04:15:23;19.10;99.90
25112;DHT22;13092;51.996;4.458;2023-10-08T04:17:52;19.20;99.90
25112;DHT22;13092;51.996;4.458;2023-10-08T04:20:20;19.20;99.90
25112;DHT22;13092;51.996;4.458;2023-10-08T04:23:07;19.20;99.90
25112;DHT22;13092;51.996;4.458;2023-10-08T04:25:41;19.10;99.90
25112;DHT22;13092;51.996;4.458;2023-10-08T04:28:10;19.20;99.90
25112;DHT22;13092;51.996;4.458;2023-10-08T04:30:43;19.30;99.90
25112;DHT22;13092;51.996;4.458;2023-10-08T04:33:12;19.10;99.90
25112;DHT22;13092;51.996;4.458;2023-10-08T04:35:42;19.10;99.90
25112;DHT22;13092;51.996;4.458;2023-10-08T04:38:16;19.10;99.90
25112;DHT22;13092;51.996;4.458;2023-10-08T04:40:46;19.10;99.90
25112;DHT22;13092;51.996;4.458;2023-10-08T04:43:19;19.10;99.90
25112;DHT22;13092;51.996;4.458;2023-10-08T04:45:53;19.00;99.90
25112;DHT22;13092;51.996;4.458;2023-10-08T04:48:24;19.00;99.90
25112;DHT22;13092;51.996;4.458;2023-10-08T04:50:53;19.10;99.90
25112;DHT22;13092;51.996;4.458;2023-10-08T04:53:27;19.00;99.90
25112;DHT22;13092;51.996;4.458;2023-10-08T04:56:00;18.90;99.90
25112;DHT22;13092;51.996;4.458;2023-10-08T04:58:33;19.00;99.90
25112;DHT22;13092;51.996;4.458;2023-10-08T05:01:06;19.00;99.90
25112;DHT22;13092;51.996;4.458;2023-10-08T05:03:49;18.90;99.90
25112;DHT22;13092;51.996;4.458;2023-10-08T05:06:52;18.80;99.90
25112;DHT22;13092;51.996;4.458;2023-10-08T05:09:45;18.90;99.90
25112;DHT22;13092;51.996;4.458;2023-10-08T05:12:19;18.90;99.90
25112;DHT22;13092;51.996;4.458;2023-10-08T05:15:01;18.90;99.90
25112;DHT22;13092;51.996;4.458;2023-10-08T05:17:48;18.80;99.90
25112;DHT22;13092;51.996;4.458;2023-10-08T05:20:36;18.80;99.90
25112;DHT22;13092;51.996;4.458;2023-10-08T05:23:26;18.80;99.90
25112;DHT22;13092;51.996;4.458;2023-10-08T05:26:14;18.70;99.90
25112;DHT22;13092;51.996;4.458;2023-10-08T05:28:57;18.50;99.90
25112;DHT22;13092;51.996;4.458;2023-10-08T05:31:28;18.60;99.90
25112;DHT22;13092;51.996;4.458;2023-10-08T05:34:14;18.50;99.90
25112;DHT22;13092;51.996;4.458;2023-10-08T05:36:44;18.50;99.90
25112;DHT22;13092;51.996;4.458;2023-10-08T05:39:26;18.50;99.90
25112;DHT22;13092;51.996;4.458;2023-10-08T05:42:07;18.50;99.90
25112;DHT22;13092;51.996;4.458;2023-10-08T05:44:41;18.50;99.90
25112;DHT22;13092;51.996;4.458;2023-10-08T05:47:13;18.50;99.90
25112;DHT22;13092;51.996;4.458;2023-10-08T05:50:07;18.50;99.90
25112;DHT22;13092;51.996;4.458;2023-10-08T05:52:51;18.50;99.90
25112;DHT22;13092;51.996;4.458;2023-10-08T05:55:29;18.40;99.90
25112;DHT22;13092;51.996;4.458;2023-10-08T05:58:03;18.30;99.90
25112;DHT22;13092;51.996;4.458;2023-10-08T06:00:42;17.90;99.90
25112;DHT22;13092;51.996;4.458;2023-10-08T06:03:14;17.70;99.90
25112;DHT22;13092;51.996;4.458;2023-10-08T06:06:06;17.60;99.90
25112;DHT22;13092;51.996;4.458;2023-10-08T06:08:52;17.50;99.90
25112;DHT22;13092;51.996;4.458;2023-10-08T06:11:36;17.30;99.90
25112;DHT22;13092;51.996;4.458;2023-10-08T06:14:08;17.40;99.90
25112;DHT22;13092;51.996;4.458;2023-10-08T06:16:44;17.10;99.90
25112;DHT22;13092;51.996;4.458;2023-10-08T06:19:14;17.00;99.90
25112;DHT22;13092;51.996;4.458;2023-10-08T06:21:43;17.00;99.90
25112;DHT22;13092;51.996;4.458;2023-10-08T06:24:11;17.00;99.90
25112;DHT22;13092;51.996;4.458;2023-10-08T06:26:44;16.80;99.90
25112;DHT22;13092;51.996;4.458;2023-10-08T06:29:16;16.90;99.90
25112;DHT22;13092;51.996;4.458;2023-10-08T06:31:55;16.90;99.90
25112;DHT22;13092;51.996;4.458;2023-10-08T06:34:26;16.90;99.90
25112;DHT22;13092;51.996;4.458;2023-10-08T06:36:59;16.90;99.90
25112;DHT22;13092;51.996;4.458;2023-10-08T06:39:28;16.90;99.90
25112;DHT22;13092;51.996;4.458;2023-10-08T06:42:14;16.80;99.90
25112;DHT22;13092;51.996;4.458;2023-10-08T06:44:44;16.90;99.90
25112;DHT22;13092;51.996;4.458;2023-10-08T06:47:15;16.80;99.90
25112;DHT22;13092;51.996;4.458;2023-10-08T06:49:46;16.90;99.90
25112;DHT22;13092;51.996;4.458;2023-10-08T06:52:17;16.90;99.90
25112;DHT22;13092;51.996;4.458;2023-10-08T06:54:46;16.90;99.90
25112;DHT22;13092;51.996;4.458;2023-10-08T06:57:15;16.90;99.90
25112;DHT22;13092;51.996;4.458;2023-10-08T06:59:47;17.00;99.90
25112;DHT22;13092;51.996;4.458;2023-10-08T07:02:17;17.00;99.90
25112;DHT22;13092;51.996;4.458;2023-10-08T07:04:48;16.90;99.90
25112;DHT22;13092;51.996;4.458;2023-10-08T07:07:20;16.80;99.90
25112;DHT22;13092;51.996;4.458;2023-10-08T07:09:48;16.80;99.90
25112;DHT22;13092;51.996;4.458;2023-10-08T07:12:18;16.80;99.90
25112;DHT22;13092;51.996;4.458;2023-10-08T07:14:46;16.80;99.90
25112;DHT22;13092;51.996;4.458;2023-10-08T07:17:15;16.70;99.90
25112;DHT22;13092;51.996;4.458;2023-10-08T07:19:47;16.50;99.90
25112;DHT22;13092;51.996;4.458;2023-10-08T07:22:19;16.60;99.90
25112;DHT22;13092;51.996;4.458;2023-10-08T07:24:50;16.50;99.90
25112;DHT22;13092;51.996;4.458;2023-10-08T07:27:19;16.50;99.90
25112;DHT22;13092;51.996;4.458;2023-10-08T07:29:51;16.50;99.90
25112;DHT22;13092;51.996;4.458;2023-10-08T07:32:24;16.50;99.90
25112;DHT22;13092;51.996;4.458;2023-10-08T07:34:53;16.50;99.90
25112;DHT22;13092;51.996;4.458;2023-10-08T07:37:45;16.50;99.90
25112;DHT22;13092;51.996;4.458;2023-10-08T07:40:14;16.50;99.90
25112;DHT22;13092;51.996;4.458;2023-10-08T07:42:43;16.30;99.90
25112;DHT22;13092;51.996;4.458;2023-10-08T07:45:11;16.20;99.90
25112;DHT22;13092;51.996;4.458;2023-10-08T07:47:44;16.20;99.90
25112;DHT22;13092;51.996;4.458;2023-10-08T07:50:13;16.10;99.90
25112;DHT22;13092;51.996;4.458;2023-10-08T07:52:42;16.00;99.90
25112;DHT22;13092;51.996;4.458;2023-10-08T07:55:13;15.90;99.90
25112;DHT22;13092;51.996;4.458;2023-10-08T07:57:45;15.90;99.90
25112;DHT22;13092;51.996;4.458;2023-10-08T08:00:15;15.90;99.90
25112;DHT22;13092;51.996;4.458;2023-10-08T08:02:51;16.10;99.90
25112;DHT22;13092;51.996;4.458;2023-10-08T08:05:22;16.20;99.90
25112;DHT22;13092;51.996;4.458;2023-10-08T08:07:50;16.40;99.90
25112;DHT22;13092;51.996;4.458;2023-10-08T08:10:20;16.40;99.90
25112;DHT22;13092;51.996;4.458;2023-10-08T08:12:50;16.50;99.90
25112;DHT22;13092;51.996;4.458;2023-10-08T08:15:23;16.60;99.90
25112;DHT22;13092;51.996;4.458;2023-10-08T08:17:53;16.60;99.90
25112;DHT22;13092;51.996;4.458;2023-10-08T08:20:21;16.60;99.90
25112;DHT22;13092;51.996;4.458;2023-10-08T08:23:01;16.70;99.90
25112;DHT22;13092;51.996;4.458;2023-10-08T08:25:38;16.80;99.90
25112;DHT22;13092;51.996;4.458;2023-10-08T08:28:12;16.90;99.90
25112;DHT22;13092;51.996;4.458;2023-10-08T08:30:44;17.00;99.90
25112;DHT22;13092;51.996;4.458;2023-10-08T08:33:13;17.10;99.90
25112;DHT22;13092;51.996;4.458;2023-10-08T08:35:58;17.10;99.90
25112;DHT22;13092;51.996;4.458;2023-10-08T08:38:32;17.10;99.90
25112;DHT22;13092;51.996;4.458;2023-10-08T08:41:05;17.00;99.90
25112;DHT22;13092;51.996;4.458;2023-10-08T08:43:35;17.10;99.90
25112;DHT22;13092;51.996;4.458;2023-10-08T08:46:04;17.00;99.90
25112;DHT22;13092;51.996;4.458;2023-10-08T08:48:34;16.90;99.90
25112;DHT22;13092;51.996;4.458;2023-10-08T08:51:06;16.90;99.90
25112;DHT22;13092;51.996;4.458;2023-10-08T08:53:37;16.70;99.90
25112;DHT22;13092;51.996;4.458;2023-10-08T08:56:08;16.70;99.90
25112;DHT22;13092;51.996;4.458;2023-10-08T08:58:37;16.70;99.90
25112;DHT22;13092;51.996;4.458;2023-10-08T09:01:10;16.90;99.90
25112;DHT22;13092;51.996;4.458;2023-10-08T09:03:40;16.90;99.90
25112;DHT22;13092;51.996;4.458;2023-10-08T09:06:09;16.80;99.90
25112;DHT22;13092;51.996;4.458;2023-10-08T09:08:38;16.70;99.90
25112;DHT22;13092;51.996;4.458;2023-10-08T09:11:14;16.80;99.90
25112;DHT22;13092;51.996;4.458;2023-10-08T09:13:42;16.90;99.90
25112;DHT22;13092;51.996;4.458;2023-10-08T09:16:12;17.00;99.90
25112;DHT22;13092;51.996;4.458;2023-10-08T09:18:42;17.10;99.90
25112;DHT22;13092;51.996;4.458;2023-10-08T09:21:14;17.20;99.90
25112;DHT22;13092;51.996;4.458;2023-10-08T09:23:50;17.10;99.90
25112;DHT22;13092;51.996;4.458;2023-10-08T09:26:22;17.20;99.90
25112;DHT22;13092;51.996;4.458;2023-10-08T09:28:52;17.10;99.90
25112;DHT22;13092;51.996;4.458;2023-10-08T09:31:23;17.10;99.90
25112;DHT22;13092;51.996;4.458;2023-10-08T09:33:54;17.20;99.90
25112;DHT22;13092;51.996;4.458;2023-10-08T09:36:23;17.20;99.90
25112;DHT22;13092;51.996;4.458;2023-10-08T09:39:00;17.20;99.90
25112;DHT22;13092;51.996;4.458;2023-10-08T09:41:32;17.10;99.90
25112;DHT22;13092;51.996;4.458;2023-10-08T09:44:02;17.20;99.90
25112;DHT22;13092;51.996;4.458;2023-10-08T09:46:32;17.30;99.90
25112;DHT22;13092;51.996;4.458;2023-10-08T09:49:02;17.30;99.90
25112;DHT22;13092;51.996;4.458;2023-10-08T09:51:37;17.40;99.90
25112;DHT22;13092;51.996;4.458;2023-10-08T09:54:11;17.50;99.90
25112;DHT22;13092;51.996;4.458;2023-10-08T09:56:43;17.60;99.90
25112;DHT22;13092;51.996;4.458;2023-10-08T09:59:12;17.70;99.90
25112;DHT22;13092;51.996;4.458;2023-10-08T10:01:42;17.80;99.90
25112;DHT22;13092;51.996;4.458;2023-10-08T10:04:12;17.80;99.90
25112;DHT22;13092;51.996;4.458;2023-10-08T10:06:42;17.90;99.90
25112;DHT22;13092;51.996;4.458;2023-10-08T10:09:20;18.00;99.90
25112;DHT22;13092;51.996;4.458;2023-10-08T10:11:51;18.10;99.90
25112;DHT22;13092;51.996;4.458;2023-10-08T10:14:22;18.30;99.90
25112;DHT22;13092;51.996;4.458;2023-10-08T10:17:08;18.20;99.90
25112;DHT22;13092;51.996;4.458;2023-10-08T10:19:44;18.20;99.90
25112;DHT22;13092;51.996;4.458;2023-10-08T10:22:14;18.20;99.90
25112;DHT22;13092;51.996;4.458;2023-10-08T10:24:56;18.30;99.90
25112;DHT22;13092;51.996;4.458;2023-10-08T10:27:26;18.40;99.90
25112;DHT22;13092;51.996;4.458;2023-10-08T10:30:01;18.50;99.90
25112;DHT22;13092;51.996;4.458;2023-10-08T10:32:35;18.60;99.90
25112;DHT22;13092;51.996;4.458;2023-10-08T10:35:04;18.60;99.90
25112;DHT22;13092;51.996;4.458;2023-10-08T10:37:33;18.80;99.90
25112;DHT22;13092;51.996;4.458;2023-10-08T10:40:09;18.80;99.90
25112;DHT22;13092;51.996;4.458;2023-10-08T10:42:41;18.90;99.90
25112;DHT22;13092;51.996;4.458;2023-10-08T10:45:14;18.90;99.90
25112;DHT22;13092;51.996;4.458;2023-10-08T10:48:02;19.00;99.90
25112;DHT22;13092;51.996;4.458;2023-10-08T10:50:43;18.90;99.90
25112;DHT22;13092;51.996;4.458;2023-10-08T10:53:17;19.00;99.90
25112;DHT22;13092;51.996;4.458;2023-10-08T10:55:46;19.10;99.90
25112;DHT22;13092;51.996;4.458;2023-10-08T10:58:26;19.10;99.90
25112;DHT22;13092;51.996;4.458;2023-10-08T11:01:05;19.00;99.90
25112;DHT22;13092;51.996;4.458;2023-10-08T11:03:50;19.10;99.90
25112;DHT22;13092;51.996;4.458;2023-10-08T11:06:21;19.20;99.90
25112;DHT22;13092;51.996;4.458;2023-10-08T11:08:50;19.30;99.90
25112;DHT22;13092;51.996;4.458;2023-10-08T11:11:28;19.40;99.90
25112;DHT22;13092;51.996;4.458;2023-10-08T11:14:00;19.30;99.90
25112;DHT22;13092;51.996;4.458;2023-10-08T11:16:33;19.40;99.90
25112;DHT22;13092;51.996;4.458;2023-10-08T11:19:08;19.40;99.90
25112;DHT22;13092;51.996;4.458;2023-10-08T11:21:48;19.50;99.90
25112;DHT22;13092;51.996;4.458;2023-10-08T11:24:29;19.60;99.90
25112;DHT22;13092;51.996;4.458;2023-10-08T11:27:01;19.60;99.90
25112;DHT22;13092;51.996;4.458;2023-10-08T11:29:48;19.60;99.90
25112;DHT22;13092;51.996;4.458;2023-10-08T11:32:24;19.70;99.90
25112;DHT22;13092;51.996;4.458;2023-10-08T11:34:57;19.50;99.90
25112;DHT22;13092;51.996;4.458;2023-10-08T11:37:27;19.50;99.90
25112;DHT22;13092;51.996;4.458;2023-10-08T11:39:57;19.50;99.90
25112;DHT22;13092;51.996;4.458;2023-10-08T11:42:27;19.50;99.90
25112;DHT22;13092;51.996;4.458;2023-10-08T11:45:15;19.60;99.90
25112;DHT22;13092;51.996;4.458;2023-10-08T11:47:53;19.60;99.90
25112;DHT22;13092;51.996;4.458;2023-10-08T11:50:46;19.50;99.90
25112;DHT22;13092;51.996;4.458;2023-10-08T11:53:17;19.60;99.90
25112;DHT22;13092;51.996;4.458;2023-10-08T11:55:49;19.50;99.90
25112;DHT22;13092;51.996;4.458;2023-10-08T11:58:23;19.50;99.90
25112;DHT22;13092;51.996;4.458;2023-10-08T12:01:06;19.70;99.90
25112;DHT22;13092;51.996;4.458;2023-10-08T12:03:38;19.80;99.90
25112;DHT22;13092;51.996;4.458;2023-10-08T12:06:06;19.80;99.90
25112;DHT22;13092;51.996;4.458;2023-10-08T12:08:35;19.80;99.90
25112;DHT22;13092;51.996;4.458;2023-10-08T12:11:06;19.80;99.90
25112;DHT22;13092;51.996;4.458;2023-10-08T12:13:39;19.90;99.90
25112;DHT22;13092;51.996;4.458;2023-10-08T12:16:16;19.90;99.90
25112;DHT22;13092;51.996;4.458;2023-10-08T12:18:49;19.80;99.90
25112;DHT22;13092;51.996;4.458;2023-10-08T12:21:22;19.90;99.90
25112;DHT22;13092;51.996;4.458;2023-10-08T12:23:54;20.00;99.90
25112;DHT22;13092;51.996;4.458;2023-10-08T12:26:22;20.10;99.90
25112;DHT22;13092;51.996;4.458;2023-10-08T12:28:51;20.30;99.90
25112;DHT22;13092;51.996;4.458;2023-10-08T12:31:22;20.30;99.90
25112;DHT22;13092;51.996;4.458;2023-10-08T12:33:53;20.30;99.90
25112;DHT22;13092;51.996;4.458;2023-10-08T12:36:24;20.40;99.90
25112;DHT22;13092;51.996;4.458;2023-10-08T12:38:53;20.30;99.90
25112;DHT22;13092;51.996;4.458;2023-10-08T12:41:25;20.40;99.90
25112;DHT22;13092;51.996;4.458;2023-10-08T12:43:54;20.40;99.90
25112;DHT22;13092;51.996;4.458;2023-10-08T12:46:28;20.60;99.90
25112;DHT22;13092;51.996;4.458;2023-10-08T12:48:58;20.50;99.90
25112;DHT22;13092;51.996;4.458;2023-10-08T12:51:29;20.40;99.90
25112;DHT22;13092;51.996;4.458;2023-10-08T12:54:00;20.40;99.90
25112;DHT22;13092;51.996;4.458;2023-10-08T12:56:34;20.40;99.90
25112;DHT22;13092;51.996;4.458;2023-10-08T12:59:12;20.60;99.90
25112;DHT22;13092;51.996;4.458;2023-10-08T13:01:52;20.60;99.90
25112;DHT22;13092;51.996;4.458;2023-10-08T13:04:26;20.80;99.90
25112;DHT22;13092;51.996;4.458;2023-10-08T13:06:56;20.80;99.90
25112;DHT22;13092;51.996;4.458;2023-10-08T13:09:30;20.70;99.90
25112;DHT22;13092;51.996;4.458;2023-10-08T13:12:04;20.80;99.90
25112;DHT22;13092;51.996;4.458;2023-10-08T13:14:32;20.80;99.90
25112;DHT22;13092;51.996;4.458;2023-10-08T13:17:04;20.90;99.90
25112;DHT22;13092;51.996;4.458;2023-10-08T13:19:37;20.90;99.90
25112;DHT22;13092;51.996;4.458;2023-10-08T13:22:06;20.90;99.90
25112;DHT22;13092;51.996;4.458;2023-10-08T13:24:34;20.90;99.90
25112;DHT22;13092;51.996;4.458;2023-10-08T13:27:02;21.00;99.90
25112;DHT22;13092;51.996;4.458;2023-10-08T13:29:34;21.00;99.90
25112;DHT22;13092;51.996;4.458;2023-10-08T13:32:06;21.00;99.90
25112;DHT22;13092;51.996;4.458;2023-10-08T13:34:34;21.20;99.90
25112;DHT22;13092;51.996;4.458;2023-10-08T13:37:02;21.30;99.90
25112;DHT22;13092;51.996;4.458;2023-10-08T13:39:30;21.20;99.90
25112;DHT22;13092;51.996;4.458;2023-10-08T13:42:00;21.20;99.90
25112;DHT22;13092;51.996;4.458;2023-10-08T13:44:30;21.20;99.90
25112;DHT22;13092;51.996;4.458;2023-10-08T13:46:58;21.40;99.90
25112;DHT22;13092;51.996;4.458;2023-10-08T13:49:29;21.50;99.90
25112;DHT22;13092;51.996;4.458;2023-10-08T13:51:57;21.40;99.90
25112;DHT22;13092;51.996;4.458;2023-10-08T13:54:26;21.40;99.90
25112;DHT22;13092;51.996;4.458;2023-10-08T13:56:56;21.50;99.90
25112;DHT22;13092;51.996;4.458;2023-10-08T13:59:29;21.60;99.90
25112;DHT22;13092;51.996;4.458;2023-10-08T14:01:59;21.50;99.90
25112;DHT22;13092;51.996;4.458;2023-10-08T14:04:31;21.50;99.90
25112;DHT22;13092;51.996;4.458;2023-10-08T14:07:07;21.50;99.90
25112;DHT22;13092;51.996;4.458;2023-10-08T14:09:37;21.80;99.90
25112;DHT22;13092;51.996;4.458;2023-10-08T14:12:05;21.90;99.90
25112;DHT22;13092;51.996;4.458;2023-10-08T14:14:35;21.90;99.90
25112;DHT22;13092;51.996;4.458;2023-10-08T14:17:07;21.90;99.90
25112;DHT22;13092;51.996;4.458;2023-10-08T14:19:43;21.90;99.90
25112;DHT22;13092;51.996;4.458;2023-10-08T14:22:19;21.80;99.90
25112;DHT22;13092;51.996;4.458;2023-10-08T14:24:49;22.00;99.90
25112;DHT22;13092;51.996;4.458;2023-10-08T14:27:26;21.80;99.90
25112;DHT22;13092;51.996;4.458;2023-10-08T14:29:59;21.70;99.90
25112;DHT22;13092;51.996;4.458;2023-10-08T14:32:27;21.60;99.90
25112;DHT22;13092;51.996;4.458;2023-10-08T14:35:00;21.80;99.90
25112;DHT22;13092;51.996;4.458;2023-10-08T14:37:46;21.80;99.90
25112;DHT22;13092;51.996;4.458;2023-10-08T14:40:32;21.70;99.90
25112;DHT22;13092;51.996;4.458;2023-10-08T14:43:17;21.70;99.90
25112;DHT22;13092;51.996;4.458;2023-10-08T14:45:50;21.70;99.90
25112;DHT22;13092;51.996;4.458;2023-10-08T14:48:20;21.60;99.90
25112;DHT22;13092;51.996;4.458;2023-10-08T14:50:51;21.30;99.90
25112;DHT22;13092;51.996;4.458;2023-10-08T14:53:20;21.20;99.90
25112;DHT22;13092;51.996;4.458;2023-10-08T14:55:50;21.20;99.90
25112;DHT22;13092;51.996;4.458;2023-10-08T14:58:18;21.10;99.90
25112;DHT22;13092;51.996;4.458;2023-10-08T15:00:46;21.20;99.90
25112;DHT22;13092;51.996;4.458;2023-10-08T15:03:15;21.30;99.90
25112;DHT22;13092;51.996;4.458;2023-10-08T15:05:43;21.30;99.90
25112;DHT22;13092;51.996;4.458;2023-10-08T15:08:13;21.40;99.90
25112;DHT22;13092;51.996;4.458;2023-10-08T15:10:43;21.30;99.90
25112;DHT22;13092;51.996;4.458;2023-10-08T15:13:12;21.40;99.90
25112;DHT22;13092;51.996;4.458;2023-10-08T15:15:42;21.20;99.90
25112;DHT22;13092;51.996;4.458;2023-10-08T15:18:10;21.10;99.90
25112;DHT22;13092;51.996;4.458;2023-10-08T15:20:41;21.00;99.90
25112;DHT22;13092;51.996;4.458;2023-10-08T15:23:10;20.90;99.90
25112;DHT22;13092;51.996;4.458;2023-10-08T15:25:41;20.80;99.90
25112;DHT22;13092;51.996;4.458;2023-10-08T15:28:09;20.80;99.90
25112;DHT22;13092;51.996;4.458;2023-10-08T15:30:37;20.70;99.90
25112;DHT22;13092;51.996;4.458;2023-10-08T15:33:06;20.70;99.90
25112;DHT22;13092;51.996;4.458;2023-10-08T15:35:35;20.50;99.90
25112;DHT22;13092;51.996;4.458;2023-10-08T15:38:03;20.50;99.90
25112;DHT22;13092;51.996;4.458;2023-10-08T15:40:32;20.40;99.90
25112;DHT22;13092;51.996;4.458;2023-10-08T15:43:03;20.30;99.90
25112;DHT22;13092;51.996;4.458;2023-10-08T15:45:31;20.40;99.90
25112;DHT22;13092;51.996;4.458;2023-10-08T15:47:59;20.30;99.90
25112;DHT22;13092;51.996;4.458;2023-10-08T15:50:27;20.30;99.90
25112;DHT22;13092;51.996;4.458;2023-10-08T15:53:00;20.30;99.90
25112;DHT22;13092;51.996;4.458;2023-10-08T15:55:28;20.40;99.90
25112;DHT22;13092;51.996;4.458;2023-10-08T15:57:56;20.50;99.90
25112;DHT22;13092;51.996;4.458;2023-10-08T16:00:26;20.40;99.90
25112;DHT22;13092;51.996;4.458;2023-10-08T16:02:55;20.30;99.90
25112;DHT22;13092;51.996;4.458;2023-10-08T16:05:23;20.30;99.90